createdAt,value
2019-04-22T00:01:28.930Z,4.90
2019-04-22T00:04:00.656Z,5.23
2019-04-22T00:06:48.396Z,5.33
2019-04-22T00:09:15.956Z,5.17
2019-04-22T00:11:35.441Z,4.93
2019-04-22T00:14:00.769Z,5.63
2019-04-22T00:16:43.248Z,5.00
2019-04-22T00:19:11.365Z,5.30
2019-04-22T00:21:25.791Z,5.63
2019-04-22T00:23:54.754Z,6.00
2019-04-22T00:28:49.707Z,5.70
2019-04-22T00:31:19.212Z,5.23
2019-04-22T00:33:43.792Z,5.50
2019-04-22T00:36:11.298Z,5.10
2019-04-22T00:38:38.321Z,5.87
2019-04-22T00:41:05.766Z,5.43
2019-04-22T00:43:32.993Z,5.33
2019-04-22T00:45:56.242Z,5.03
2019-04-22T00:48:29.097Z,4.80
2019-04-22T00:51:04.260Z,5.77
2019-04-22T00:53:25.314Z,6.03
2019-04-22T00:56:00.581Z,5.77
2019-04-22T00:58:29.398Z,6.00
2019-04-22T01:00:54.246Z,4.73
2019-04-22T01:03:19.649Z,4.63
2019-04-22T01:05:46.588Z,4.60
2019-04-22T01:08:15.235Z,4.60
2019-04-22T01:10:40.313Z,4.53
2019-04-22T01:13:04.758Z,5.30
2019-04-22T01:15:34.421Z,4.87
2019-04-22T01:17:57.904Z,5.23
2019-04-22T01:20:45.792Z,4.50
2019-04-22T01:22:52.816Z,4.40
2019-04-22T01:25:15.955Z,5.67
2019-04-22T01:27:41.822Z,5.17
2019-04-22T01:30:00.860Z,4.90
2019-04-22T01:32:22.877Z,5.13
2019-04-22T01:34:57.989Z,4.80
2019-04-22T01:37:29.087Z,4.80
2019-04-22T01:40:04.763Z,4.90
2019-04-22T01:42:24.486Z,5.27
2019-04-22T01:44:51.005Z,5.27
2019-04-22T01:47:29.894Z,5.00
2019-04-22T01:49:46.215Z,5.30
2019-04-22T01:52:15.787Z,5.20
2019-04-22T01:54:48.085Z,5.10
2019-04-22T01:57:03.607Z,4.93
2019-04-22T01:59:27.185Z,4.87
2019-04-22T02:02:07.041Z,5.20
2019-04-22T02:04:44.622Z,6.00
2019-04-22T02:07:00.147Z,6.07
2019-04-22T02:11:57.189Z,5.37
2019-04-22T02:14:20.367Z,5.57
2019-04-22T02:16:41.611Z,6.10
2019-04-22T02:19:11.624Z,5.33
2019-04-22T02:21:35.774Z,5.13
2019-04-22T02:24:02.645Z,6.17
2019-04-22T02:28:56.473Z,5.60
2019-04-22T02:34:09.352Z,5.47
2019-04-22T02:36:30.392Z,6.20
2019-04-22T02:41:23.047Z,5.00
2019-04-22T02:43:52.804Z,5.60
2019-04-22T02:46:23.333Z,5.23
2019-04-22T02:54:12.193Z,5.43
2019-04-22T02:56:12.186Z,5.20
2019-04-22T02:58:37.329Z,4.83
2019-04-22T03:00:58.894Z,4.97
2019-04-22T03:08:15.123Z,6.07
2019-04-22T03:10:47.406Z,5.83
2019-04-22T03:13:16.109Z,5.37
2019-04-22T03:15:29.983Z,5.90
2019-04-22T03:18:01.238Z,5.20
2019-04-22T03:20:45.992Z,5.10
2019-04-22T03:23:00.288Z,5.30
2019-04-22T03:27:40.217Z,4.90
2019-04-22T03:37:45.624Z,5.47
2019-04-22T03:40:02.487Z,4.50
2019-04-22T03:42:21.593Z,5.60
2019-04-22T03:45:01.259Z,4.90
2019-04-22T03:49:56.029Z,5.30
2019-04-22T03:54:47.698Z,5.33
2019-04-22T03:59:47.716Z,5.40
2019-04-22T04:09:24.273Z,6.00
2019-04-22T04:14:22.925Z,5.93
2019-04-22T04:16:49.901Z,6.20
2019-04-22T04:24:19.774Z,5.97
2019-04-22T04:29:02.412Z,5.40
2019-04-22T04:33:46.716Z,5.93
2019-04-22T04:46:06.917Z,5.90
2019-04-22T04:48:34.835Z,5.50
2019-04-22T04:51:11.896Z,5.40
2019-04-22T04:53:23.201Z,6.03
2019-04-22T04:55:49.131Z,5.97
2019-04-22T04:58:25.047Z,5.80
2019-04-22T05:03:16.688Z,5.33
2019-04-22T05:05:31.438Z,5.40
2019-04-22T05:10:44.858Z,5.87
2019-04-22T05:12:56.812Z,5.10
2019-04-22T05:17:55.075Z,5.80
2019-04-22T05:20:24.247Z,5.10
2019-04-22T05:22:39.669Z,6.17
2019-04-22T05:27:36.418Z,5.90
2019-04-22T05:30:23.742Z,5.57
2019-04-22T05:32:28.753Z,5.53
2019-04-22T05:35:10.263Z,5.70
2019-04-22T05:37:25.691Z,5.10
2019-04-22T05:39:44.871Z,6.20
2019-04-22T05:42:12.662Z,5.50
2019-04-22T05:44:44.078Z,6.00
2019-04-22T05:47:01.041Z,6.00
2019-04-22T05:49:28.883Z,6.00
2019-04-22T05:51:54.592Z,5.50
2019-04-22T05:54:31.281Z,5.50
2019-04-22T05:56:47.716Z,5.20
2019-04-22T05:59:22.809Z,5.03
2019-04-22T06:01:53.248Z,4.73
2019-04-22T06:04:09.879Z,5.78
2019-04-22T06:06:35.308Z,5.60
2019-04-22T06:09:05.156Z,5.23
2019-04-22T06:11:29.526Z,5.43
2019-04-22T06:13:59.317Z,6.20
2019-04-22T06:16:26.518Z,6.00
2019-04-22T06:18:56.830Z,5.20
2019-04-22T06:21:22.380Z,5.40
2019-04-22T06:23:46.864Z,6.20
2019-04-22T06:28:40.645Z,5.37
2019-04-22T06:31:12.500Z,5.43
2019-04-22T06:33:36.032Z,5.63
2019-04-22T06:36:03.717Z,5.70
2019-04-22T06:38:39.200Z,5.50
2019-04-22T06:40:55.406Z,5.30
2019-04-22T06:43:23.638Z,5.20
2019-04-22T06:45:44.856Z,5.30
2019-04-22T06:48:19.553Z,5.90
2019-04-22T06:50:56.802Z,5.57
2019-04-22T06:53:26.637Z,5.40
2019-04-22T06:55:38.925Z,5.07
2019-04-22T06:58:01.533Z,5.17
2019-04-22T07:00:43.080Z,5.90
2019-04-22T07:05:23.611Z,5.30
2019-04-22T07:07:45.355Z,5.27
2019-04-22T07:10:26.779Z,5.30
2019-04-22T07:12:41.799Z,5.93
2019-04-22T07:15:16.216Z,5.30
2019-04-22T07:17:39.331Z,5.57
2019-04-22T07:19:58.494Z,4.77
2019-04-22T07:22:31.172Z,5.13
2019-04-22T07:27:22.233Z,5.60
2019-04-22T07:29:57.741Z,5.13
2019-04-22T07:32:15.519Z,5.20
2019-04-22T07:37:23.088Z,5.50
2019-04-22T07:39:35.608Z,4.90
2019-04-22T07:41:58.617Z,5.30
2019-04-22T07:44:30.925Z,4.43
2019-04-22T07:49:26.746Z,5.47
2019-04-22T07:52:04.796Z,5.20
2019-04-22T07:54:16.275Z,4.97
2019-04-22T07:56:44.003Z,5.70
2019-04-22T07:59:09.258Z,5.53
2019-04-22T08:04:13.129Z,4.63
2019-04-22T08:06:30.962Z,5.60
2019-04-22T08:09:03.244Z,5.27
2019-04-22T08:11:37.419Z,5.03
2019-04-22T08:13:48.501Z,4.63
2019-04-22T08:16:16.394Z,4.67
2019-04-22T08:18:40.576Z,4.63
2019-04-22T08:21:12.317Z,5.10
2019-04-22T08:23:38.903Z,4.97
2019-04-22T08:26:01.739Z,4.70
2019-04-22T08:28:31.714Z,5.58
2019-04-22T08:30:59.700Z,5.00
2019-04-22T08:33:29.490Z,4.97
2019-04-22T08:36:12.012Z,5.17
2019-04-22T08:38:14.915Z,4.40
2019-04-22T08:40:50.159Z,4.37
2019-04-22T08:43:20.956Z,4.40
2019-04-22T08:45:48.098Z,4.33
2019-04-22T08:48:07.629Z,3.93
2019-04-22T08:50:33.504Z,4.20
2019-04-22T08:53:06.168Z,3.87
2019-04-22T08:55:32.929Z,4.43
2019-04-22T09:00:19.985Z,3.90
2019-04-22T09:02:53.958Z,4.60
2019-04-22T09:05:22.806Z,4.00
2019-04-22T09:07:47.005Z,4.37
2019-04-22T09:10:10.376Z,3.93
2019-04-22T09:15:01.086Z,4.53
2019-04-22T09:17:33.069Z,4.37
2019-04-22T09:20:04.680Z,4.23
2019-04-22T09:22:26.378Z,3.60
2019-04-22T09:25:03.129Z,4.10
2019-04-22T09:27:32.053Z,3.97
2019-04-22T09:29:42.977Z,3.70
2019-04-22T09:32:11.813Z,3.83
2019-04-22T09:34:39.934Z,3.90
2019-04-22T09:37:11.729Z,3.50
2019-04-22T09:39:37.521Z,3.83
2019-04-22T09:41:58.722Z,3.53
2019-04-22T09:44:34.594Z,3.60
2019-04-22T09:46:52.279Z,3.40
2019-04-22T09:49:26.666Z,3.80
2019-04-22T09:51:48.500Z,3.40
2019-04-22T09:54:22.006Z,3.33
2019-04-22T09:59:05.500Z,4.30
2019-04-22T10:02:01.212Z,4.20
2019-04-22T10:04:00.857Z,3.95
2019-04-22T10:06:36.639Z,3.83
2019-04-22T10:11:26.798Z,4.10
2019-04-22T10:16:17.575Z,3.80
2019-04-22T10:18:46.406Z,3.93
2019-04-22T10:21:08.682Z,3.93
2019-04-22T10:23:31.616Z,4.40
2019-04-22T10:26:04.840Z,4.10
2019-04-22T10:28:35.582Z,3.57
2019-04-22T10:30:53.458Z,4.10
2019-04-22T10:33:16.235Z,4.10
2019-04-22T10:35:26.744Z,4.47
2019-04-22T10:37:50.487Z,3.80
2019-04-22T10:40:25.732Z,3.90
2019-04-22T10:42:51.665Z,3.40
2019-04-22T10:45:18.549Z,4.53
2019-04-22T10:47:45.836Z,3.80
2019-04-22T10:50:12.276Z,3.65
2019-04-22T10:52:39.373Z,3.70
2019-04-22T10:55:05.541Z,3.83
2019-04-22T10:57:32.290Z,3.85
2019-04-22T10:59:59.019Z,3.43
2019-04-22T11:02:25.758Z,3.23
2019-04-22T11:04:52.492Z,4.00
2019-04-22T11:07:24.631Z,3.57
2019-04-22T11:09:54.862Z,3.63
2019-04-22T11:12:17.663Z,3.67
2019-04-22T11:14:42.760Z,3.90
2019-04-22T11:17:07.435Z,3.90
2019-04-22T11:19:33.068Z,3.70
2019-04-22T11:22:07.644Z,4.00
2019-04-22T11:24:26.804Z,3.20
2019-04-22T11:26:54.801Z,3.20
2019-04-22T11:29:21.398Z,3.77
2019-04-22T11:31:48.276Z,3.90
2019-04-22T11:34:15.355Z,3.47
2019-04-22T11:36:40.919Z,3.47
2019-04-22T11:39:10.778Z,3.50
2019-04-22T11:41:35.991Z,3.53
2019-04-22T11:44:01.352Z,3.93
2019-04-22T11:46:29.359Z,3.93
2019-04-22T11:48:55.918Z,4.03
2019-04-22T11:51:22.115Z,3.70
2019-04-22T11:53:49.125Z,3.20
2019-04-22T11:56:14.885Z,11.20
2019-04-22T11:58:42.570Z,13.40
2019-04-22T12:01:08.675Z,3.07
2019-04-22T12:03:35.766Z,3.30
2019-04-22T12:06:02.188Z,9.43
2019-04-22T12:08:29.100Z,3.33
2019-04-22T12:11:00.088Z,2.97
2019-04-22T12:13:22.390Z,3.43
2019-04-22T12:15:49.183Z,3.47
2019-04-22T12:18:17.211Z,3.10
2019-04-22T12:20:43.378Z,3.50
2019-04-22T12:23:09.537Z,3.40
2019-04-22T12:25:47.631Z,3.43
2019-04-22T12:28:03.301Z,3.90
2019-04-22T12:30:29.858Z,3.05
2019-04-22T12:32:56.326Z,3.87
2019-04-22T12:35:24.280Z,3.30
2019-04-22T12:37:55.624Z,3.30
2019-04-22T12:40:29.433Z,3.30
2019-04-22T12:42:43.286Z,3.73
2019-04-22T12:45:10.051Z,3.10
2019-04-22T12:47:38.088Z,3.35
2019-04-22T12:50:12.359Z,3.00
2019-04-22T12:52:37.382Z,2.77
2019-04-22T12:54:57.370Z,3.10
2019-04-22T12:57:24.906Z,2.93
2019-04-22T12:59:50.654Z,3.20
2019-04-22T13:02:18.696Z,3.00
2019-04-22T13:04:44.134Z,3.40
2019-04-22T13:07:11.558Z,2.83
2019-04-22T13:09:38.957Z,2.80
2019-04-22T13:12:04.354Z,2.70
2019-04-22T13:14:31.110Z,3.10
2019-04-22T13:16:59.782Z,3.23
2019-04-22T13:19:28.020Z,2.73
2019-04-22T13:21:52.335Z,2.83
2019-04-22T13:24:20.101Z,2.60
2019-04-22T13:26:45.836Z,2.95
2019-04-22T13:29:12.892Z,2.60
2019-04-22T13:31:40.444Z,2.70
2019-04-22T13:34:13.289Z,2.90
2019-04-22T13:36:32.818Z,3.30
2019-04-22T13:39:00.749Z,2.83
2019-04-22T13:41:35.674Z,2.70
2019-04-22T13:43:53.857Z,3.00
2019-04-22T13:46:20.082Z,2.93
2019-04-22T13:49:14.679Z,2.43
2019-04-22T13:51:46.179Z,3.30
2019-04-22T13:54:37.214Z,3.07
2019-04-22T13:56:23.824Z,2.10
2019-04-22T13:58:48.555Z,2.20
2019-04-22T14:01:04.862Z,2.50
2019-04-22T14:03:50.084Z,2.20
2019-04-22T14:06:16.821Z,2.20
2019-04-22T14:08:45.086Z,2.70
2019-04-22T14:11:25.310Z,3.00
2019-04-22T14:13:37.758Z,2.07
2019-04-22T14:16:04.784Z,2.60
2019-04-22T14:18:30.834Z,2.40
2019-04-22T14:20:58.716Z,2.10
2019-04-22T14:23:24.675Z,2.80
2019-04-22T14:25:50.926Z,2.50
2019-04-22T14:28:19.385Z,2.50
2019-04-22T14:30:44.429Z,2.30
2019-04-22T14:33:12.109Z,2.13
2019-04-22T14:35:38.460Z,2.60
2019-04-22T14:38:06.312Z,2.23
2019-04-22T14:40:32.943Z,2.20
2019-04-22T14:44:43.033Z,2.27
2019-04-22T14:46:01.681Z,2.10
2019-04-22T14:48:19.924Z,2.20
2019-04-22T14:50:41.915Z,2.50
2019-04-22T14:53:04.102Z,2.20
2019-04-22T14:55:17.461Z,2.37
2019-04-22T14:57:40.399Z,2.53
2019-04-22T15:00:06.141Z,2.07
2019-04-22T15:02:33.873Z,2.33
2019-04-22T15:05:00.547Z,2.57
2019-04-22T15:07:26.062Z,2.47
2019-04-22T15:09:52.783Z,2.00
2019-04-22T15:12:30.112Z,1.97
2019-04-22T15:14:47.827Z,2.50
2019-04-22T15:17:24.948Z,2.13
2019-04-22T15:19:58.065Z,2.30
2019-04-22T15:22:24.046Z,2.50
2019-04-22T15:24:52.313Z,2.27
2019-04-22T15:27:18.461Z,1.73
2019-04-22T15:29:45.141Z,2.30
2019-04-22T15:32:11.720Z,2.30
2019-04-22T15:34:39.401Z,2.30
2019-04-22T15:37:06.088Z,2.33
2019-04-22T15:39:31.641Z,2.30
2019-04-22T15:42:09.755Z,2.10
2019-04-22T15:44:26.067Z,2.10
2019-04-22T15:46:53.064Z,2.10
2019-04-22T15:49:20.022Z,2.17
2019-04-22T15:51:46.749Z,2.07
2019-04-22T15:54:12.167Z,2.00
2019-04-22T15:56:39.118Z,2.20
2019-04-22T15:59:17.234Z,2.40
2019-04-22T16:01:36.997Z,2.30
2019-04-22T16:04:00.391Z,2.53
2019-04-22T16:06:26.342Z,2.17
2019-04-22T16:08:54.043Z,2.50
2019-04-22T16:11:20.005Z,2.70
2019-04-22T16:13:46.618Z,2.40
2019-04-22T16:16:14.435Z,2.63
2019-04-22T16:18:40.329Z,2.20
2019-04-22T16:21:07.151Z,2.10
2019-04-22T16:23:38.649Z,2.20
2019-04-22T16:26:13.564Z,2.00
2019-04-22T16:28:39.789Z,2.20
2019-04-22T16:31:07.197Z,2.17
2019-04-22T16:33:36.458Z,1.83
2019-04-22T16:36:00.581Z,2.70
2019-04-22T16:38:26.961Z,2.60
2019-04-22T16:40:54.723Z,2.13
2019-04-22T16:43:20.417Z,2.03
2019-04-22T16:45:49.533Z,2.33
2019-04-22T16:48:15.774Z,2.23
2019-04-22T16:50:43.655Z,2.37
2019-04-22T16:53:08.481Z,2.27
2019-04-22T16:55:35.170Z,2.20
2019-04-22T16:58:03.182Z,2.73
2019-04-22T17:00:28.881Z,2.50
2019-04-22T17:03:08.876Z,2.30
2019-04-22T17:05:41.396Z,2.40
2019-04-22T17:08:08.190Z,2.23
2019-04-22T17:10:34.006Z,2.22
2019-04-22T17:13:07.241Z,2.10
2019-04-22T17:15:29.115Z,2.70
2019-04-22T17:17:54.944Z,2.20
2019-04-22T17:20:27.180Z,1.80
2019-04-22T17:22:53.759Z,2.10
2019-04-22T17:25:20.597Z,1.83
2019-04-22T17:27:47.506Z,2.27
2019-04-22T17:30:14.702Z,2.40
2019-04-22T17:32:43.266Z,2.30
2019-04-22T17:35:08.342Z,1.80
2019-04-22T17:37:37.119Z,2.03
2019-04-22T17:40:15.853Z,1.97
2019-04-22T17:42:46.189Z,2.30
2019-04-22T17:45:28.447Z,2.57
2019-04-22T17:47:49.341Z,2.40
2019-04-22T17:50:27.524Z,3.63
2019-04-22T17:52:54.860Z,3.52
2019-04-22T17:55:11.433Z,2.70
2019-04-22T17:57:38.085Z,2.50
2019-04-22T18:00:07.047Z,3.30
2019-04-22T18:02:32.354Z,2.80
2019-04-22T18:04:49.619Z,3.33
2019-04-22T18:07:45.282Z,2.90
2019-04-22T18:12:35.772Z,2.87
2019-04-22T18:14:56.803Z,2.40
2019-04-22T18:17:19.453Z,2.10
2019-04-22T18:19:40.212Z,2.55
2019-04-22T18:22:03.674Z,3.00
2019-04-22T18:24:26.553Z,2.30
2019-04-22T18:27:17.053Z,2.83
2019-04-22T18:29:31.054Z,2.43
2019-04-22T18:31:47.858Z,2.30
2019-04-22T18:34:15.838Z,2.60
2019-04-22T18:36:45.732Z,2.20
2019-04-22T18:39:25.290Z,2.50
2019-04-22T18:41:47.217Z,2.40
2019-04-22T18:44:11.484Z,2.73
2019-04-22T18:46:36.579Z,2.50
2019-04-22T18:49:03.392Z,2.00
2019-04-22T18:51:40.271Z,2.07
2019-04-22T18:54:13.434Z,2.43
2019-04-22T18:56:37.358Z,2.47
2019-04-22T18:58:55.856Z,2.43
2019-04-22T19:01:12.465Z,2.30
2019-04-22T19:03:51.754Z,2.10
2019-04-22T19:06:34.160Z,2.07
2019-04-22T19:09:01.760Z,1.83
2019-04-22T19:11:16.720Z,2.33
2019-04-22T19:16:25.581Z,2.60
2019-04-22T19:19:09.988Z,2.30
2019-04-22T19:21:16.026Z,2.40
2019-04-22T19:23:31.899Z,2.47
2019-04-22T19:26:01.754Z,2.30
2019-04-22T19:30:57.802Z,2.00
2019-04-22T19:33:23.638Z,2.00
2019-04-22T19:35:44.238Z,2.50
2019-04-22T19:38:05.315Z,2.20
2019-04-22T19:40:47.914Z,2.30
2019-04-22T19:43:09.020Z,2.63
2019-04-22T19:45:32.770Z,2.20
2019-04-22T19:48:03.658Z,2.20
2019-04-22T19:50:27.435Z,2.60
2019-04-22T19:53:01.685Z,2.77
2019-04-22T19:55:23.819Z,2.13
2019-04-22T19:57:52.575Z,1.93
2019-04-22T20:00:14.460Z,2.07
2019-04-22T20:03:05.375Z,2.60
2019-04-22T20:05:41.527Z,2.47
2019-04-22T20:07:51.286Z,2.30
2019-04-22T20:10:26.463Z,2.60
2019-04-22T20:12:50.047Z,2.70
2019-04-22T20:15:15.611Z,2.80
2019-04-22T20:18:00.563Z,2.53
2019-04-22T20:20:19.080Z,2.43
2019-04-22T20:22:37.436Z,3.17
2019-04-22T20:24:53.797Z,2.90
2019-04-22T20:27:36.516Z,2.50
2019-04-22T20:30:02.404Z,3.10
2019-04-22T20:32:29.248Z,2.77
2019-04-22T20:34:59.554Z,2.50
2019-04-22T20:37:39.939Z,2.83
2019-04-22T20:39:48.782Z,2.60
2019-04-22T20:44:47.333Z,2.70
2019-04-22T20:47:04.431Z,2.57
2019-04-22T20:49:38.372Z,2.20
2019-04-22T20:52:14.128Z,2.60
2019-04-22T20:54:28.412Z,2.43
2019-04-22T20:56:49.234Z,2.90
2019-04-22T20:59:19.051Z,2.40
2019-04-22T21:01:43.273Z,2.60
2019-04-22T21:04:00.888Z,2.13
2019-04-22T21:06:38.409Z,2.97
2019-04-22T21:09:12.033Z,2.30
2019-04-22T21:11:34.625Z,2.57
2019-04-22T21:14:04.422Z,2.80
2019-04-22T21:16:34.752Z,2.70
2019-04-22T21:18:47.376Z,2.27
2019-04-22T21:21:29.652Z,2.93
2019-04-22T21:23:44.955Z,3.30
2019-04-22T21:26:13.988Z,3.30
2019-04-22T21:28:43.757Z,3.07
2019-04-22T21:31:14.472Z,3.30
2019-04-22T21:33:36.411Z,3.47
2019-04-22T21:38:33.167Z,3.23
2019-04-22T21:40:56.681Z,3.50
2019-04-22T21:43:25.576Z,3.50
2019-04-22T21:45:53.119Z,3.50
2019-04-22T21:48:27.942Z,3.40
2019-04-22T21:53:14.499Z,3.53
2019-04-22T21:55:43.779Z,3.30
2019-04-22T21:58:13.076Z,3.40
2019-04-22T22:00:53.485Z,3.20
2019-04-22T22:03:11.680Z,2.87
2019-04-22T22:05:28.756Z,3.45
2019-04-22T22:07:48.108Z,3.77
2019-04-22T22:10:29.490Z,3.67
2019-04-22T22:12:54.955Z,3.40
2019-04-22T22:15:22.496Z,3.50
2019-04-22T22:17:42.964Z,4.10
2019-04-22T22:20:10.598Z,4.03
2019-04-22T22:23:00.553Z,4.33
2019-04-22T22:25:10.577Z,3.97
2019-04-22T22:27:37.503Z,4.40
2019-04-22T22:32:32.048Z,4.30
2019-04-22T22:35:00.390Z,3.97
2019-04-22T22:37:12.137Z,3.70
2019-04-22T22:39:39.235Z,3.80
2019-04-22T22:41:54.230Z,3.80
2019-04-22T22:44:29.488Z,4.12
2019-04-22T22:47:03.522Z,3.30
2019-04-22T22:49:33.400Z,3.67
2019-04-22T22:52:26.166Z,4.17
2019-04-22T22:54:33.067Z,3.80
2019-04-22T22:57:16.844Z,3.30
2019-04-22T22:59:23.680Z,3.30
2019-04-22T23:02:04.375Z,3.63
2019-04-22T23:04:16.210Z,3.80
2019-04-22T23:06:44.389Z,3.77
2019-04-22T23:09:10.096Z,4.60
2019-04-22T23:11:52.057Z,3.80
2019-04-22T23:14:02.409Z,4.30
2019-04-22T23:16:20.210Z,4.70
2019-04-22T23:18:55.394Z,3.40
2019-04-22T23:21:29.103Z,3.20
2019-04-22T23:24:05.751Z,3.40
2019-04-22T23:26:40.394Z,3.65
2019-04-22T23:29:06.186Z,3.27
2019-04-22T23:31:35.517Z,3.47
2019-04-22T23:34:09.235Z,3.57
2019-04-22T23:36:42.431Z,3.80
2019-04-22T23:39:20.287Z,3.13
2019-04-22T23:41:47.642Z,2.93
2019-04-22T23:46:37.921Z,3.07
2019-04-22T23:49:04.561Z,3.07
2019-04-22T23:51:39.626Z,2.70
2019-04-22T23:54:07.052Z,2.63
2019-04-22T23:56:28.183Z,2.80
2019-04-22T23:59:05.111Z,2.80
